createdAt,value
2022-08-08T00:00:56.389Z,2.75
2022-08-08T00:06:03.103Z,3.00
2022-08-08T00:11:14.932Z,3.47
2022-08-08T00:16:25.795Z,3.33
2022-08-08T00:21:39.538Z,2.78
2022-08-08T00:26:51.896Z,2.80
2022-08-08T00:32:20.243Z,2.97
2022-08-08T00:37:46.925Z,3.65
2022-08-08T00:43:40.762Z,3.10
2022-08-08T00:49:22.821Z,3.58
2022-08-08T00:55:05.035Z,2.90
2022-08-08T01:00:12.934Z,4.35
2022-08-08T01:05:59.320Z,3.47
2022-08-08T01:11:28.830Z,3.95
2022-08-08T01:17:17.663Z,3.63
2022-08-08T01:22:44.190Z,3.85
2022-08-08T01:34:05.836Z,4.15
2022-08-08T01:39:34.917Z,4.30
2022-08-08T01:44:59.020Z,4.38
2022-08-08T01:50:17.142Z,3.80
2022-08-08T01:56:29.584Z,4.35
2022-08-08T02:01:17.310Z,3.72
2022-08-08T02:06:55.609Z,4.50
2022-08-08T02:12:12.648Z,4.45
2022-08-08T02:17:23.846Z,4.07
2022-08-08T02:22:52.276Z,4.35
2022-08-08T02:28:05.514Z,5.25
2022-08-08T02:33:41.377Z,4.47
2022-08-08T02:39:40.415Z,4.35
2022-08-08T02:45:28.298Z,4.13
2022-08-08T02:51:11.709Z,4.28
2022-08-08T03:02:30.064Z,3.72
2022-08-08T03:08:11.396Z,4.30
2022-08-08T03:15:57.288Z,4.82
2022-08-08T03:19:51.120Z,4.05
2022-08-08T03:24:58.462Z,4.88
2022-08-08T03:30:08.725Z,4.27
2022-08-08T03:35:13.813Z,4.35
2022-08-08T03:40:30.297Z,4.15
2022-08-08T03:46:02.951Z,5.00
2022-08-08T03:51:03.277Z,4.03
2022-08-08T03:56:09.452Z,4.63
2022-08-08T04:01:23.167Z,4.43
2022-08-08T04:06:32.643Z,4.90
2022-08-08T04:11:48.113Z,5.00
2022-08-08T04:17:58.323Z,4.53
2022-08-08T04:22:58.346Z,4.15
2022-08-08T04:28:36.384Z,4.72
2022-08-08T04:33:28.673Z,4.97
2022-08-08T04:38:47.484Z,4.57
2022-08-08T04:43:57.261Z,5.15
2022-08-08T04:49:02.006Z,5.20
2022-08-08T04:54:39.680Z,5.15
2022-08-08T04:59:41.873Z,4.57
2022-08-08T05:04:47.556Z,4.50
2022-08-08T05:09:52.473Z,5.30
2022-08-08T05:20:14.946Z,5.10
2022-08-08T05:25:21.294Z,4.88
2022-08-08T05:30:28.027Z,4.78
2022-08-08T05:35:35.726Z,4.60
2022-08-08T05:40:49.033Z,4.47
2022-08-08T05:46:01.955Z,4.25
2022-08-08T05:51:13.376Z,4.00
2022-08-08T05:56:28.043Z,3.97
2022-08-08T06:01:55.590Z,3.45
2022-08-08T06:07:04.970Z,3.70
2022-08-08T06:12:11.354Z,3.90
2022-08-08T06:17:50.443Z,3.72
2022-08-08T06:22:47.261Z,3.33
2022-08-08T06:28:00.399Z,3.20
2022-08-08T06:33:11.622Z,2.88
2022-08-08T06:38:28.761Z,2.67
2022-08-08T06:43:37.334Z,3.08
2022-08-08T06:48:51.260Z,2.72
2022-08-08T06:54:00.762Z,3.60
2022-08-08T06:59:13.054Z,2.85
2022-08-08T07:04:36.406Z,2.63
2022-08-08T07:10:00.965Z,2.35
2022-08-08T07:15:32.220Z,2.28
2022-08-08T07:20:46.003Z,2.20
2022-08-08T07:26:00.887Z,1.80
2022-08-08T07:31:07.494Z,2.33
2022-08-08T07:36:16.698Z,2.08
2022-08-08T07:41:25.428Z,1.77
2022-08-08T07:46:33.633Z,1.75
2022-08-08T07:51:53.480Z,1.65
2022-08-08T07:57:10.441Z,1.10
2022-08-08T08:02:35.578Z,1.38
2022-08-08T08:07:53.288Z,1.50
2022-08-08T08:13:25.245Z,1.30
2022-08-08T08:18:40.741Z,1.20
2022-08-08T08:24:02.649Z,1.10
2022-08-08T08:29:07.494Z,1.10
2022-08-08T08:34:21.282Z,0.90
2022-08-08T08:40:00.147Z,0.75
2022-08-08T08:44:53.511Z,1.20
2022-08-08T08:49:57.782Z,0.98
2022-08-08T08:55:04.287Z,0.90
2022-08-08T09:00:17.014Z,0.70
2022-08-08T09:05:49.252Z,0.75
2022-08-08T09:10:51.002Z,0.80
2022-08-08T09:16:03.359Z,0.60
2022-08-08T09:22:01.801Z,0.73
2022-08-08T09:26:51.385Z,0.87
2022-08-08T09:32:04.213Z,0.80
2022-08-08T09:37:58.175Z,0.68
2022-08-08T09:42:51.816Z,0.60
2022-08-08T09:48:10.207Z,0.52
2022-08-08T09:53:32.825Z,0.52
2022-08-08T09:58:57.850Z,0.47
2022-08-08T10:04:04.950Z,0.32
2022-08-08T10:09:09.198Z,0.55
2022-08-08T10:14:34.830Z,0.50
2022-08-08T10:19:46.064Z,0.70
2022-08-08T10:25:07.353Z,0.45
2022-08-08T10:31:00.120Z,0.55
2022-08-08T10:36:08.977Z,0.73
2022-08-08T10:41:24.597Z,0.70
2022-08-08T10:46:41.169Z,0.68
2022-08-08T10:51:50.899Z,0.40
2022-08-08T10:56:58.664Z,0.40
2022-08-08T11:02:04.984Z,0.52
2022-08-08T11:07:39.189Z,0.50
2022-08-08T11:12:38.384Z,0.50
2022-08-08T11:18:01.089Z,0.20
2022-08-08T11:23:06.749Z,0.50
2022-08-08T11:28:14.186Z,0.38
2022-08-08T11:33:20.019Z,0.40
2022-08-08T11:38:35.662Z,0.57
2022-08-08T11:43:45.555Z,0.30
2022-08-08T11:48:54.877Z,0.40
2022-08-08T11:54:01.355Z,0.40
2022-08-08T11:59:11.016Z,0.40
2022-08-08T12:04:16.554Z,0.38
2022-08-08T12:10:00.262Z,0.38
2022-08-08T12:15:05.102Z,0.50
2022-08-08T12:20:14.562Z,0.50
2022-08-08T12:25:29.706Z,0.50
2022-08-08T12:35:52.959Z,0.40
2022-08-08T12:41:00.092Z,0.40
2022-08-08T12:46:24.834Z,0.80
2022-08-08T12:51:42.336Z,0.50
2022-08-08T12:56:58.329Z,0.50
2022-08-08T13:02:02.776Z,0.65
2022-08-08T13:07:11.783Z,0.47
2022-08-08T13:12:29.202Z,0.47
2022-08-08T13:18:09.932Z,0.50
2022-08-08T13:23:30.912Z,0.67
2022-08-08T13:28:31.956Z,0.60
2022-08-08T13:33:42.210Z,0.50
2022-08-08T13:38:48.050Z,0.50
2022-08-08T13:43:51.793Z,0.43
2022-08-08T13:49:12.139Z,0.38
2022-08-08T13:54:29.451Z,0.60
2022-08-08T13:59:39.247Z,0.30
2022-08-08T14:04:54.139Z,0.35
2022-08-08T14:10:10.143Z,0.43
2022-08-08T14:15:31.367Z,0.40
2022-08-08T14:20:56.713Z,0.60
2022-08-08T14:26:10.947Z,0.40
2022-08-08T14:31:20.273Z,0.40
2022-08-08T14:36:34.987Z,0.40
2022-08-08T14:41:53.633Z,0.60
2022-08-08T14:47:00.351Z,0.45
2022-08-08T14:52:09.098Z,0.50
2022-08-08T14:57:16.854Z,0.50
2022-08-08T15:02:25.804Z,0.60
2022-08-08T15:07:39.232Z,0.60
2022-08-08T15:12:47.406Z,0.60
2022-08-08T15:17:51.151Z,0.30
2022-08-08T15:22:54.983Z,0.30
2022-08-08T15:28:32.368Z,0.47
2022-08-08T15:33:35.770Z,0.50
2022-08-08T15:38:49.741Z,0.40
2022-08-08T15:44:01.273Z,0.40
2022-08-08T15:49:05.452Z,0.40
2022-08-08T15:54:18.762Z,0.40
2022-08-08T16:00:25.634Z,0.40
2022-08-08T16:04:58.778Z,0.52
2022-08-08T16:13:10.358Z,0.40
2022-08-08T16:15:28.008Z,0.80
2022-08-08T16:20:36.568Z,0.40
2022-08-08T16:25:46.125Z,0.40
2022-08-08T16:30:58.826Z,0.30
2022-08-08T16:36:15.840Z,0.32
2022-08-08T16:41:23.155Z,0.35
2022-08-08T16:46:36.714Z,0.82
2022-08-08T16:55:02.048Z,0.35
2022-08-08T16:57:22.841Z,0.45
2022-08-08T17:02:38.246Z,0.50
2022-08-08T17:07:44.957Z,0.30
2022-08-08T17:12:52.940Z,0.40
2022-08-08T17:18:03.657Z,0.32
2022-08-08T17:23:18.236Z,0.40
2022-08-08T17:28:35.128Z,0.40
2022-08-08T17:34:36.855Z,0.40
2022-08-08T17:39:22.796Z,0.32
2022-08-08T17:44:29.881Z,0.40
2022-08-08T17:49:38.128Z,0.50
2022-08-08T17:54:47.210Z,0.50
2022-08-08T18:00:01.632Z,0.50
2022-08-08T18:05:22.194Z,0.40
2022-08-08T18:10:31.273Z,0.50
2022-08-08T18:15:35.585Z,0.70
2022-08-08T18:20:54.324Z,0.60
2022-08-08T18:26:01.434Z,0.47
2022-08-08T18:31:08.025Z,0.55
2022-08-08T18:36:22.900Z,0.50
2022-08-08T18:41:51.653Z,0.50
2022-08-08T18:46:54.908Z,0.45
2022-08-08T18:52:02.504Z,0.50
2022-08-08T18:57:11.024Z,0.50
2022-08-08T19:02:27.243Z,0.40
2022-08-08T19:07:37.514Z,0.50
2022-08-08T19:12:44.828Z,0.35
2022-08-08T19:18:32.342Z,0.40
2022-08-08T19:23:22.287Z,0.38
2022-08-08T19:28:26.185Z,0.40
2022-08-08T19:33:39.514Z,0.60
2022-08-08T19:38:55.571Z,0.50
2022-08-08T19:44:03.006Z,0.50
2022-08-08T19:49:07.935Z,0.50
2022-08-08T19:54:14.965Z,0.50
2022-08-08T19:59:22.096Z,0.55
2022-08-08T20:04:26.299Z,0.50
2022-08-08T20:09:32.492Z,0.50
2022-08-08T20:14:42.213Z,0.50
2022-08-08T20:19:55.274Z,0.65
2022-08-08T20:25:03.218Z,0.60
2022-08-08T20:30:10.801Z,0.65
2022-08-08T20:35:58.030Z,0.55
2022-08-08T20:41:00.324Z,0.73
2022-08-08T20:46:04.147Z,0.43
2022-08-08T20:51:07.909Z,0.80
2022-08-08T20:56:14.099Z,0.80
2022-08-08T21:01:20.282Z,0.68
2022-08-08T21:06:52.504Z,0.80
2022-08-08T21:11:51.880Z,0.60
2022-08-08T21:16:57.188Z,0.60
2022-08-08T21:22:03.200Z,0.60
2022-08-08T21:27:15.584Z,0.80
2022-08-08T21:32:32.972Z,0.60
2022-08-08T21:37:53.947Z,0.68
2022-08-08T21:43:00.139Z,0.75
2022-08-08T21:48:13.007Z,1.10
2022-08-08T21:54:32.568Z,0.80
2022-08-08T21:58:54.689Z,0.50
2022-08-08T22:03:59.697Z,1.27
2022-08-08T22:09:08.264Z,0.80
2022-08-08T22:14:14.377Z,0.95
2022-08-08T22:19:18.965Z,0.88
2022-08-08T22:24:28.820Z,1.02
2022-08-08T22:29:58.946Z,1.30
2022-08-08T22:34:58.070Z,1.05
2022-08-08T22:40:02.882Z,0.95
2022-08-08T22:45:12.781Z,1.15
2022-08-08T22:50:27.456Z,1.15
2022-08-08T22:55:32.753Z,1.13
2022-08-08T23:01:00.118Z,1.13
2022-08-08T23:06:04.895Z,1.13
2022-08-08T23:11:13.199Z,1.25
2022-08-08T23:16:37.932Z,1.00
2022-08-08T23:21:42.656Z,1.45
2022-08-08T23:26:55.754Z,1.33
2022-08-08T23:32:01.796Z,1.23
2022-08-08T23:37:08.466Z,1.52
2022-08-08T23:42:15.576Z,1.27
2022-08-08T23:49:07.966Z,1.40
2022-08-08T23:52:47.054Z,1.02
2022-08-08T23:57:52.744Z,1.38
